Terminal Aerodrome Forecast
Issued by NWS

Home | Current Version | Previous Version | Text Only | Print | Product List | Glossary On
Versions: 1 2 3 4 5 6 7 8 9 10 11 12
000
FTUS45 KVEF 270500
TAFBIH
TAF
KBIH 270520Z 2706/2806 34012KT P6SM SKC
     FM271600 VRB04KT P6SM BKN250
     FM272000 17006KT P6SM BKN250
     FM280300 32005KT P6SM BKN250=

USA.gov is the U.S. government's official web portal to all federal, state and local government web resources and services.